Aviation Digital Data Service (ADDS)

Output produced by METARs form (1043 UTC 30 October 2020)
found at http://aviationweather.gov/metar/data/
 
METAR text: KLZZ 301035Z AUTO 35005KT 10SM CLR 06/02 A3026 RMK AO2 T00610017
Conditions at: KLZZ (LAMPASAS , TX, US) observed 1035 UTC 30 October 2020
Temperature: 6.1°C (43°F)
Dewpoint: 1.7°C (35°F) [RH = 73%]
Pressure (altimeter): 30.26 inches Hg (1024.8 mb)
Winds: from the N (350 degrees) at 6 MPH (5 knots; 2.6 m/s)
Visibility: 10 or more miles (16+ km)
Ceiling: at least 12,000 feet AGL
Clouds: sky clear below 12,000 feet AGL
Weather: automated observation with no human augmentation;
there may or may not be significant weather present at this time

METAR text: KLZZ 301015Z AUTO 34004KT 10SM CLR 05/01 A3026 RMK AO2 T00450011
Conditions at: KLZZ (LAMPASAS , TX, US) observed 1015 UTC 30 October 2020
Temperature: 4.5°C (40°F)
Dewpoint: 1.1°C (34°F) [RH = 79%]
Pressure (altimeter): 30.26 inches Hg (1024.8 mb)
Winds: from the NNW (340 degrees) at 5 MPH (4 knots; 2.1 m/s)
Visibility: 10 or more miles (16+ km)
Ceiling: at least 12,000 feet AGL
Clouds: sky clear below 12,000 feet AGL
Weather: automated observation with no human augmentation;
there may or may not be significant weather present at this time

METAR text: KLZZ 300955Z AUTO 00000KT 10SM CLR 02/01 A3027 RMK AO2 T00170007
Conditions at: KLZZ (LAMPASAS , TX, US) observed 0955 UTC 30 October 2020
Temperature: 1.7°C (35°F)
Dewpoint: 0.7°C (33°F) [RH = 93%]
Pressure (altimeter): 30.27 inches Hg (1025.1 mb)
Winds: calm
Visibility: 10 or more miles (16+ km)
Ceiling: at least 12,000 feet AGL
Clouds: sky clear below 12,000 feet AGL
Weather: automated observation with no human augmentation;
there may or may not be significant weather present at this time

METAR text: KLZZ 300935Z AUTO 00000KT 10SM CLR 03/01 A3027 RMK AO2 T00340011
Conditions at: KLZZ (LAMPASAS , TX, US) observed 0935 UTC 30 October 2020
Temperature: 3.4°C (38°F)
Dewpoint: 1.1°C (34°F) [RH = 85%]
Pressure (altimeter): 30.27 inches Hg (1025.1 mb)
Winds: calm
Visibility: 10 or more miles (16+ km)
Ceiling: at least 12,000 feet AGL
Clouds: sky clear below 12,000 feet AGL
Weather: automated observation with no human augmentation;
there may or may not be significant weather present at this time

METAR text: KLZZ 300915Z AUTO 00000KT 10SM CLR 02/01 A3027 RMK AO2 T00170007
Conditions at: KLZZ (LAMPASAS , TX, US) observed 0915 UTC 30 October 2020
Temperature: 1.7°C (35°F)
Dewpoint: 0.7°C (33°F) [RH = 93%]
Pressure (altimeter): 30.27 inches Hg (1025.1 mb)
Winds: calm
Visibility: 10 or more miles (16+ km)
Ceiling: at least 12,000 feet AGL
Clouds: sky clear below 12,000 feet AGL
Weather: automated observation with no human augmentation;
there may or may not be significant weather present at this time

METAR text: KLZZ 300855Z AUTO 00000KT 10SM CLR 03/02 A3027 RMK AO2 T00320018
Conditions at: KLZZ (LAMPASAS , TX, US) observed 0855 UTC 30 October 2020
Temperature: 3.2°C (38°F)
Dewpoint: 1.8°C (35°F) [RH = 91%]
Pressure (altimeter): 30.27 inches Hg (1025.1 mb)
Winds: calm
Visibility: 10 or more miles (16+ km)
Ceiling: at least 12,000 feet AGL
Clouds: sky clear below 12,000 feet AGL
Weather: automated observation with no human augmentation;
there may or may not be significant weather present at this time